createdAt,value
2022-12-08T00:01:37.177Z,6.72
2022-12-08T00:04:07.989Z,6.71
2022-12-08T00:07:03.161Z,6.66
2022-12-08T00:09:38.629Z,6.83
2022-12-08T00:12:21.144Z,6.86
2022-12-08T00:14:50.156Z,6.74
2022-12-08T00:17:21.577Z,6.54
2022-12-08T00:19:54.629Z,6.70
2022-12-08T00:22:30.463Z,6.79
2022-12-08T00:24:57.451Z,6.92
2022-12-08T00:27:25.837Z,6.76
2022-12-08T00:29:55.967Z,6.57
2022-12-08T00:32:28.281Z,6.43
2022-12-08T00:34:59.608Z,6.85
2022-12-08T00:37:38.506Z,6.80
2022-12-08T00:40:09.061Z,6.65
2022-12-08T00:42:44.286Z,6.83
2022-12-08T00:45:24.072Z,7.49
2022-12-08T00:47:55.477Z,7.39
2022-12-08T00:50:25.431Z,7.06
2022-12-08T00:52:56.497Z,7.21
2022-12-08T00:55:43.717Z,6.87
2022-12-08T00:58:25.349Z,6.79
2022-12-08T01:00:56.167Z,6.94
2022-12-08T01:03:29.124Z,6.69
2022-12-08T01:06:06.249Z,6.72
2022-12-08T01:08:37.653Z,6.66
2022-12-08T01:11:16.638Z,6.78
2022-12-08T01:13:44.818Z,6.59
2022-12-08T01:16:34.537Z,6.64
2022-12-08T01:19:05.609Z,6.57
2022-12-08T01:21:34.282Z,6.82
2022-12-08T01:24:02.880Z,6.93
2022-12-08T01:26:47.337Z,6.76
2022-12-08T01:29:30.357Z,6.62
2022-12-08T01:32:08.172Z,6.62
2022-12-08T01:35:12.289Z,6.67
2022-12-08T01:37:46.191Z,6.56
2022-12-08T01:40:16.549Z,6.70
2022-12-08T01:42:43.717Z,6.43
2022-12-08T01:45:40.659Z,6.17
2022-12-08T01:48:15.405Z,6.54
2022-12-08T01:51:01.773Z,6.49
2022-12-08T01:57:24.211Z,6.46
2022-12-08T02:00:06.945Z,6.27
2022-12-08T02:05:58.902Z,6.36
2022-12-08T02:08:27.666Z,6.39
2022-12-08T02:14:32.526Z,6.44
2022-12-08T02:17:37.029Z,6.31
2022-12-08T02:20:18.244Z,6.60
2022-12-08T02:23:25.323Z,6.55
2022-12-08T02:26:15.793Z,6.60
2022-12-08T02:29:17.322Z,6.33
2022-12-08T02:31:56.522Z,6.23
2022-12-08T02:34:51.975Z,6.59
2022-12-08T02:37:25.366Z,6.44
2022-12-08T02:40:17.084Z,6.31
2022-12-08T02:43:02.729Z,6.46
2022-12-08T02:45:41.490Z,6.45
2022-12-08T02:48:09.547Z,6.85
2022-12-08T02:50:36.792Z,6.74
2022-12-08T02:55:38.316Z,6.86
2022-12-08T02:58:28.481Z,6.78
2022-12-08T03:01:28.779Z,6.81
2022-12-08T03:04:20.535Z,7.05
2022-12-08T03:06:54.182Z,6.68
2022-12-08T03:13:36.172Z,7.02
2022-12-08T03:16:09.504Z,6.78
2022-12-08T03:18:40.447Z,6.72
2022-12-08T03:21:08.805Z,6.53
2022-12-08T03:23:38.996Z,6.58
2022-12-08T03:26:13.708Z,6.81
2022-12-08T03:28:41.989Z,6.82
2022-12-08T03:31:13.153Z,6.92
2022-12-08T03:33:43.639Z,6.88
2022-12-08T03:36:12.614Z,6.76
2022-12-08T03:38:41.975Z,6.74
2022-12-08T03:41:21.553Z,6.70
2022-12-08T03:44:12.791Z,6.44
2022-12-08T03:46:40.572Z,6.51
2022-12-08T03:49:07.400Z,6.33
2022-12-08T03:51:40.087Z,6.52
2022-12-08T03:54:09.642Z,6.39
2022-12-08T03:56:48.424Z,6.47
2022-12-08T03:59:20.453Z,6.62
2022-12-08T04:01:47.564Z,6.48
2022-12-08T04:04:19.170Z,6.52
2022-12-08T04:06:46.251Z,6.93
2022-12-08T04:09:21.112Z,6.85
2022-12-08T04:11:50.318Z,6.79
2022-12-08T04:14:17.182Z,6.65
2022-12-08T04:16:48.774Z,6.76
2022-12-08T04:19:18.646Z,6.93
2022-12-08T04:21:49.611Z,6.78
2022-12-08T04:24:16.549Z,6.76
2022-12-08T04:30:12.238Z,6.83
2022-12-08T04:32:44.221Z,6.60
2022-12-08T04:35:13.968Z,6.77
2022-12-08T04:37:40.994Z,6.99
2022-12-08T04:40:17.166Z,6.88
2022-12-08T04:42:44.359Z,6.53
2022-12-08T04:45:16.657Z,6.64
2022-12-08T04:47:43.548Z,6.72
2022-12-08T04:50:11.817Z,6.78
2022-12-08T04:52:42.207Z,6.65
2022-12-08T04:55:13.363Z,6.86
2022-12-08T04:57:40.293Z,6.78
2022-12-08T05:06:53.205Z,6.75
2022-12-08T05:09:20.147Z,6.65
2022-12-08T05:11:48.992Z,6.49
2022-12-08T05:14:20.342Z,6.45
2022-12-08T05:16:47.651Z,6.72
2022-12-08T05:19:15.689Z,7.00
2022-12-08T05:21:51.703Z,6.79
2022-12-08T05:28:17.634Z,6.98
2022-12-08T05:30:47.993Z,6.88
2022-12-08T05:33:15.200Z,7.02
2022-12-08T05:35:45.022Z,7.02
2022-12-08T05:38:13.689Z,7.13
2022-12-08T05:40:42.536Z,7.09
2022-12-08T05:43:10.661Z,6.93
2022-12-08T05:45:37.591Z,6.92
2022-12-08T05:48:20.633Z,6.73
2022-12-08T05:50:51.700Z,6.77
2022-12-08T05:53:23.047Z,6.75
2022-12-08T05:55:50.150Z,6.68
2022-12-08T05:58:19.606Z,6.48
2022-12-08T06:00:58.422Z,6.65
2022-12-08T06:03:32.721Z,6.53
2022-12-08T06:05:59.675Z,6.74
2022-12-08T06:08:30.162Z,6.76
2022-12-08T06:10:56.981Z,6.80
2022-12-08T06:16:52.291Z,6.53
2022-12-08T06:19:19.486Z,6.76
2022-12-08T06:21:46.300Z,6.99
2022-12-08T06:24:13.292Z,6.91
2022-12-08T06:26:41.747Z,6.88
2022-12-08T06:29:08.696Z,6.95
2022-12-08T06:31:35.881Z,6.88
2022-12-08T06:38:02.439Z,6.75
2022-12-08T06:40:29.305Z,7.00
2022-12-08T06:42:56.233Z,6.97
2022-12-08T06:45:23.022Z,6.97
2022-12-08T06:47:51.349Z,6.93
2022-12-08T06:50:18.293Z,6.85
2022-12-08T06:52:55.929Z,6.98
2022-12-08T06:58:18.919Z,6.54
2022-12-08T07:03:27.004Z,6.67
2022-12-08T07:06:03.319Z,6.60
2022-12-08T07:14:46.147Z,7.02
2022-12-08T07:24:19.588Z,6.72
2022-12-08T07:26:46.434Z,6.61
2022-12-08T07:29:23.128Z,6.74
2022-12-08T07:31:55.946Z,6.78
2022-12-08T07:34:22.889Z,6.68
2022-12-08T07:36:52.646Z,6.47
2022-12-08T07:39:19.618Z,6.56
2022-12-08T07:41:46.576Z,6.52
2022-12-08T07:44:13.470Z,6.48
2022-12-08T07:46:43.550Z,6.76
2022-12-08T07:49:10.479Z,6.63
2022-12-08T07:51:37.340Z,6.60
2022-12-08T07:54:04.330Z,6.64
2022-12-08T07:56:34.234Z,6.81
2022-12-08T07:59:01.728Z,6.98
2022-12-08T08:01:31.458Z,6.90
2022-12-08T08:04:08.473Z,6.87
2022-12-08T08:06:37.213Z,6.73
2022-12-08T08:09:04.785Z,6.97
2022-12-08T08:11:37.764Z,6.82
2022-12-08T08:14:04.767Z,7.10
2022-12-08T08:16:38.717Z,7.23
2022-12-08T08:19:09.652Z,6.97
2022-12-08T08:21:45.836Z,7.00
2022-12-08T08:24:22.558Z,6.97
2022-12-08T08:27:01.388Z,7.11
2022-12-08T08:29:30.692Z,7.00
2022-12-08T08:31:57.907Z,7.07
2022-12-08T08:34:27.798Z,7.14
2022-12-08T08:36:57.449Z,7.23
2022-12-08T08:39:35.222Z,7.09
2022-12-08T08:42:02.465Z,6.97
2022-12-08T08:44:35.083Z,6.98
2022-12-08T08:47:05.221Z,7.08
2022-12-08T08:49:39.345Z,7.29
2022-12-08T08:52:11.636Z,7.58
2022-12-08T08:54:44.608Z,7.30
2022-12-08T08:57:20.747Z,7.50
2022-12-08T08:59:54.294Z,7.68
2022-12-08T09:02:48.354Z,7.69
2022-12-08T09:05:16.905Z,7.72
2022-12-08T09:07:48.100Z,7.63
2022-12-08T09:10:15.531Z,7.45
2022-12-08T09:12:49.615Z,7.43
2022-12-08T09:15:23.352Z,7.62
2022-12-08T09:17:53.349Z,7.80
2022-12-08T09:20:20.458Z,7.91
2022-12-08T09:22:52.694Z,7.95
2022-12-08T09:25:24.453Z,7.85
2022-12-08T09:27:56.857Z,7.82
2022-12-08T09:30:29.445Z,7.48
2022-12-08T09:32:58.943Z,7.67
2022-12-08T09:35:31.856Z,7.93
2022-12-08T09:37:58.763Z,7.81
2022-12-08T09:41:01.406Z,7.70
2022-12-08T09:44:15.179Z,7.39
2022-12-08T09:46:47.900Z,7.45
2022-12-08T09:49:22.061Z,7.84
2022-12-08T09:51:52.486Z,7.53
2022-12-08T09:54:29.359Z,7.73
2022-12-08T09:57:07.632Z,7.72
2022-12-08T09:59:39.528Z,7.93
2022-12-08T10:02:21.357Z,7.95
2022-12-08T10:04:48.505Z,8.28
2022-12-08T10:07:39.363Z,8.44
2022-12-08T10:10:18.796Z,8.25
2022-12-08T10:12:46.588Z,8.39
2022-12-08T10:15:49.587Z,8.26
2022-12-08T10:18:28.654Z,8.12
2022-12-08T10:21:14.732Z,8.00
2022-12-08T10:23:48.959Z,8.30
2022-12-08T10:26:30.380Z,8.29
2022-12-08T10:29:02.551Z,8.27
2022-12-08T10:31:33.389Z,8.52
2022-12-08T10:34:15.022Z,8.26
2022-12-08T10:36:57.318Z,8.45
2022-12-08T10:39:35.959Z,8.13
2022-12-08T10:42:23.216Z,8.14
2022-12-08T10:45:10.611Z,8.13
2022-12-08T10:47:44.604Z,8.33
2022-12-08T10:50:28.134Z,8.28
2022-12-08T10:53:09.067Z,8.24
2022-12-08T10:55:46.662Z,8.40
2022-12-08T10:58:37.335Z,8.44
2022-12-08T11:01:44.488Z,8.63
2022-12-08T11:04:21.263Z,8.47
2022-12-08T11:06:56.486Z,8.30
2022-12-08T11:09:35.991Z,8.32
2022-12-08T11:12:23.796Z,8.22
2022-12-08T11:15:00.233Z,8.16
2022-12-08T11:17:28.865Z,8.40
2022-12-08T11:19:57.407Z,8.38
2022-12-08T11:22:34.404Z,8.42
2022-12-08T11:25:11.271Z,8.38
2022-12-08T11:27:43.733Z,8.47
2022-12-08T11:30:23.774Z,8.63
2022-12-08T11:33:01.750Z,8.44
2022-12-08T11:35:54.775Z,8.58
2022-12-08T11:38:24.588Z,8.43
2022-12-08T11:41:09.570Z,8.59
2022-12-08T11:43:59.520Z,8.78
2022-12-08T11:46:30.346Z,8.63
2022-12-08T11:49:07.247Z,8.84
2022-12-08T11:52:21.243Z,8.97
2022-12-08T11:55:07.378Z,8.94
2022-12-08T11:57:36.078Z,8.68
2022-12-08T12:00:23.713Z,8.63
2022-12-08T12:03:01.761Z,8.58
2022-12-08T12:06:09.280Z,8.81
2022-12-08T12:08:50.450Z,8.84
2022-12-08T12:11:57.682Z,8.97
2022-12-08T12:14:32.256Z,9.33
2022-12-08T12:17:30.243Z,9.18
2022-12-08T12:20:03.149Z,8.94
2022-12-08T12:22:39.242Z,8.96
2022-12-08T12:25:06.696Z,8.98
2022-12-08T12:27:40.740Z,8.84
2022-12-08T12:30:21.214Z,8.97
2022-12-08T12:33:09.296Z,9.09
2022-12-08T12:35:48.175Z,9.20
2022-12-08T12:38:49.711Z,9.15
2022-12-08T12:41:27.720Z,9.12
2022-12-08T12:44:18.724Z,9.37
2022-12-08T12:47:38.117Z,9.29
2022-12-08T12:50:10.452Z,9.44
2022-12-08T12:52:47.173Z,9.51
2022-12-08T12:55:21.536Z,9.45
2022-12-08T12:57:57.007Z,9.54
2022-12-08T13:00:26.798Z,9.84
2022-12-08T13:03:01.578Z,10.01
2022-12-08T13:05:28.720Z,10.01
2022-12-08T13:07:57.335Z,10.03
2022-12-08T13:10:39.676Z,9.98
2022-12-08T13:13:19.874Z,9.70
2022-12-08T13:16:01.027Z,9.42
2022-12-08T13:18:41.503Z,9.23
2022-12-08T13:21:19.122Z,9.22
2022-12-08T13:24:12.867Z,8.96
2022-12-08T13:27:17.754Z,9.34
2022-12-08T13:29:46.581Z,9.47
2022-12-08T13:32:13.515Z,9.59
2022-12-08T13:35:00.416Z,9.62
2022-12-08T13:37:52.434Z,9.52
2022-12-08T13:40:32.310Z,9.47
2022-12-08T13:43:23.642Z,9.44
2022-12-08T13:46:52.939Z,9.49
2022-12-08T13:57:37.805Z,9.30
2022-12-08T14:00:16.695Z,9.36
2022-12-08T14:02:57.189Z,9.16
2022-12-08T14:05:47.632Z,9.23
2022-12-08T14:08:58.920Z,9.33
2022-12-08T14:12:00.432Z,9.27
2022-12-08T14:15:04.983Z,9.41
2022-12-08T14:17:38.600Z,9.84
2022-12-08T14:20:57.879Z,9.65
2022-12-08T14:23:34.536Z,9.52
2022-12-08T14:26:11.476Z,9.33
2022-12-08T14:28:44.700Z,9.34
2022-12-08T14:31:14.911Z,9.21
2022-12-08T14:33:48.416Z,9.21
2022-12-08T14:36:26.127Z,9.06
2022-12-08T14:38:56.077Z,9.04
2022-12-08T14:41:35.083Z,8.98
2022-12-08T14:44:05.540Z,8.95
2022-12-08T14:46:36.043Z,8.97
2022-12-08T14:49:05.985Z,8.74
2022-12-08T14:51:37.061Z,8.70
2022-12-08T14:54:16.012Z,8.76
2022-12-08T14:56:59.022Z,8.82
2022-12-08T14:59:39.497Z,8.96
2022-12-08T15:02:10.524Z,9.02
2022-12-08T15:04:55.053Z,8.99
2022-12-08T15:07:44.511Z,8.87
2022-12-08T15:10:17.543Z,8.82
2022-12-08T15:13:23.423Z,8.79
2022-12-08T15:15:57.309Z,8.66
2022-12-08T15:18:41.401Z,8.57
2022-12-08T15:21:15.853Z,8.60
2022-12-08T15:23:50.337Z,8.51
2022-12-08T15:26:22.221Z,8.58
2022-12-08T15:28:49.165Z,8.45
2022-12-08T15:31:18.737Z,8.47
2022-12-08T15:33:46.073Z,8.57
2022-12-08T15:36:15.206Z,8.47
2022-12-08T15:38:43.587Z,8.41
2022-12-08T15:41:15.509Z,8.48
2022-12-08T15:43:45.609Z,8.60
2022-12-08T15:46:12.706Z,8.52
2022-12-08T15:48:58.356Z,8.70
2022-12-08T15:51:43.437Z,8.74
2022-12-08T15:54:16.792Z,8.58
2022-12-08T15:59:46.007Z,8.64
2022-12-08T16:02:20.904Z,8.77
2022-12-08T16:05:40.855Z,8.67
2022-12-08T16:07:57.403Z,8.60
2022-12-08T16:10:35.385Z,8.65
2022-12-08T16:13:56.764Z,8.58
2022-12-08T16:16:37.127Z,8.60
2022-12-08T16:19:07.580Z,8.75
2022-12-08T16:22:44.524Z,9.14
2022-12-08T16:24:29.251Z,9.28
2022-12-08T16:29:47.494Z,10.01
2022-12-08T16:32:18.039Z,10.06
2022-12-08T16:34:51.016Z,9.81
2022-12-08T16:37:28.858Z,9.57
2022-12-08T16:40:04.144Z,9.74
2022-12-08T16:42:55.252Z,9.72
2022-12-08T16:45:31.479Z,9.46
2022-12-08T16:48:16.791Z,9.45
2022-12-08T16:51:10.596Z,9.31
2022-12-08T16:53:46.674Z,9.39
2022-12-08T16:56:32.610Z,9.76
2022-12-08T16:59:04.065Z,10.36
2022-12-08T17:01:32.259Z,10.13
2022-12-08T17:06:53.233Z,9.91
2022-12-08T17:09:25.866Z,9.42
2022-12-08T17:12:01.837Z,9.16
2022-12-08T17:14:41.096Z,8.96
2022-12-08T17:17:09.433Z,8.75
2022-12-08T17:19:36.463Z,8.66
2022-12-08T17:22:07.643Z,8.91
2022-12-08T17:31:42.291Z,9.65
2022-12-08T17:34:17.095Z,9.80
2022-12-08T17:40:28.115Z,10.03
2022-12-08T17:43:46.466Z,10.16
2022-12-08T18:00:09.691Z,8.76
2022-12-08T18:02:41.031Z,8.72
2022-12-08T18:05:10.845Z,8.80
2022-12-08T18:07:40.395Z,9.08
2022-12-08T18:10:08.185Z,9.00
2022-12-08T18:12:38.835Z,8.89
2022-12-08T18:18:44.207Z,8.51
2022-12-08T18:21:23.263Z,8.46
2022-12-08T18:24:01.525Z,8.57
2022-12-08T18:26:39.593Z,8.68
2022-12-08T18:29:08.236Z,9.15
2022-12-08T18:32:31.507Z,10.23
2022-12-08T18:35:01.326Z,10.28
2022-12-08T18:37:28.753Z,10.18
2022-12-08T18:39:55.959Z,10.17
2022-12-08T18:42:30.389Z,10.39
2022-12-08T18:45:04.592Z,9.98
2022-12-08T18:47:33.855Z,10.34
2022-12-08T18:50:00.868Z,10.43
2022-12-08T18:52:32.325Z,10.52
2022-12-08T18:55:09.145Z,10.78
2022-12-08T19:01:04.540Z,10.39
2022-12-08T19:06:58.705Z,9.73
2022-12-08T19:09:27.114Z,9.90
2022-12-08T19:11:56.720Z,9.83
2022-12-08T19:15:00.582Z,10.51
2022-12-08T19:18:11.032Z,10.58
2022-12-08T19:25:06.127Z,10.60
2022-12-08T19:27:35.692Z,10.31
2022-12-08T19:30:12.414Z,9.76
2022-12-08T19:32:39.194Z,9.69
2022-12-08T19:35:13.291Z,9.95
2022-12-08T19:42:13.692Z,10.17
2022-12-08T19:44:52.825Z,9.33
2022-12-08T19:47:25.044Z,10.22
2022-12-08T19:50:30.852Z,9.50
2022-12-08T19:53:01.402Z,9.99
2022-12-08T19:55:31.151Z,10.44
2022-12-08T19:58:06.838Z,10.28
2022-12-08T20:00:41.221Z,9.74
2022-12-08T20:03:23.199Z,9.65
2022-12-08T20:06:00.702Z,9.75
2022-12-08T20:08:34.081Z,10.30
2022-12-08T20:14:45.496Z,9.06
2022-12-08T20:17:23.868Z,9.15
2022-12-08T20:20:07.062Z,8.72
2022-12-08T20:22:38.247Z,9.22
2022-12-08T20:25:07.286Z,9.15
2022-12-08T20:27:37.411Z,10.14
2022-12-08T20:30:05.028Z,9.52
2022-12-08T20:32:32.777Z,9.33
2022-12-08T20:34:59.725Z,9.46
2022-12-08T20:37:26.646Z,9.94
2022-12-08T20:39:53.501Z,10.58
2022-12-08T20:42:28.339Z,10.21
2022-12-08T20:44:56.810Z,10.02
2022-12-08T20:47:24.054Z,10.20
2022-12-08T20:49:53.672Z,9.90
2022-12-08T20:52:24.120Z,10.39
2022-12-08T20:54:50.828Z,9.85
2022-12-08T20:57:26.817Z,9.36
2022-12-08T20:59:53.976Z,9.73
2022-12-08T21:02:24.486Z,9.45
2022-12-08T21:04:51.460Z,10.61
2022-12-08T21:07:21.090Z,10.96
2022-12-08T21:09:48.046Z,11.04
2022-12-08T21:12:15.064Z,9.85
2022-12-08T21:14:45.482Z,10.09
2022-12-08T21:17:15.953Z,10.06
2022-12-08T21:20:13.995Z,10.03
2022-12-08T21:22:42.284Z,9.60
2022-12-08T21:25:12.604Z,9.26
2022-12-08T21:27:40.019Z,9.37
2022-12-08T21:30:12.385Z,9.09
2022-12-08T21:32:39.717Z,9.09
2022-12-08T21:35:07.422Z,9.66
2022-12-08T21:37:49.256Z,10.28
2022-12-08T21:40:21.653Z,9.80
2022-12-08T21:42:52.206Z,9.60
2022-12-08T21:45:27.705Z,9.40
2022-12-08T21:48:15.885Z,9.96
2022-12-08T21:54:18.741Z,10.72
2022-12-08T21:56:55.905Z,9.65
2022-12-08T21:59:22.994Z,10.33
2022-12-08T22:01:50.036Z,10.01
2022-12-08T22:04:22.592Z,9.25
2022-12-08T22:06:55.414Z,9.91
2022-12-08T22:12:59.533Z,10.27
2022-12-08T22:15:26.527Z,10.75
2022-12-08T22:18:06.677Z,10.92
2022-12-08T22:20:42.338Z,10.37
2022-12-08T22:23:18.021Z,10.35
2022-12-08T22:25:58.030Z,10.15
2022-12-08T22:28:46.924Z,9.64
2022-12-08T22:31:37.718Z,9.89
2022-12-08T22:34:28.797Z,9.32
2022-12-08T22:37:03.753Z,9.50
2022-12-08T22:39:38.889Z,10.26
2022-12-08T22:42:09.120Z,10.22
2022-12-08T22:51:37.696Z,9.82
2022-12-08T22:54:12.025Z,9.74
2022-12-08T22:56:53.475Z,10.09
2022-12-08T22:59:43.166Z,10.27
2022-12-08T23:02:16.153Z,9.77
2022-12-08T23:04:55.486Z,9.62
2022-12-08T23:07:29.584Z,9.69
2022-12-08T23:10:03.044Z,9.88
2022-12-08T23:12:46.330Z,10.21
2022-12-08T23:15:18.089Z,9.78
2022-12-08T23:17:48.728Z,10.07
2022-12-08T23:20:19.097Z,9.55
2022-12-08T23:22:53.943Z,8.77
2022-12-08T23:25:25.291Z,8.41
2022-12-08T23:27:52.510Z,8.16
2022-12-08T23:30:19.406Z,8.11
2022-12-08T23:32:56.810Z,8.72
2022-12-08T23:35:23.952Z,8.86
2022-12-08T23:37:53.766Z,9.42
2022-12-08T23:40:20.749Z,9.54
2022-12-08T23:42:47.516Z,9.96
2022-12-08T23:45:14.533Z,10.03
2022-12-08T23:47:44.207Z,9.55
2022-12-08T23:50:14.084Z,9.42
2022-12-08T23:52:41.087Z,9.69
2022-12-08T23:55:08.807Z,9.39
2022-12-08T23:57:37.586Z,8.97
